Time;durP1;ratioP1;P1;durP2;ratioP2;P2;SDS_P1;SDS_P2;PMS_P1;PMS_P2;Temp;Humidity;BMP_temperature;BMP_pressure;BME280_temperature;BME280_humidity;BME280_pressure;Samples;Min_cycle;Max_cycle;Signal;HPM_P1;HPM_P2
2022/11/26 00:00:53;;;;;;;0.20;0.10;;;;;;;;;;5006682;28;20044;-79
2022/11/26 00:03:19;;;;;;;0.20;0.10;;;;;;;;;;5005425;28;20050;-79
2022/11/26 00:05:46;;;;;;;0.20;0.10;;;;;;;;;;5027200;28;20095;-79
2022/11/26 00:08:15;;;;;;;0.20;0.20;;;;;;;;;;5012459;28;20143;-79
2022/11/26 00:10:41;;;;;;;0.20;0.17;;;;;;;;;;5008749;28;20122;-78
2022/11/26 00:13:15;;;;;;;0.20;0.10;;;;;;;;;;5007265;28;20065;-79
2022/11/26 00:15:41;;;;;;;0.20;0.10;;;;;;;;;;5009928;28;20037;-78
2022/11/26 00:18:07;;;;;;;0.20;0.10;;;;;;;;;;5003836;28;20042;-79
2022/11/26 00:20:33;;;;;;;0.20;0.10;;;;;;;;;;5005981;28;20052;-79
2022/11/26 00:23:01;;;;;;;0.20;0.10;;;;;;;;;;5009013;28;20544;-79
2022/11/26 00:25:30;;;;;;;0.32;0.32;;;;;;;;;;5032734;22;20049;-76
2022/11/26 00:27:57;;;;;;;0.20;0.20;;;;;;;;;;5030471;28;20052;-77
2022/11/26 00:30:24;;;;;;;0.20;0.10;;;;;;;;;;5014223;28;20036;-77
2022/11/26 00:32:51;;;;;;;0.20;0.10;;;;;;;;;;5029672;28;20055;-77
2022/11/26 00:35:17;;;;;;;0.20;0.10;;;;;;;;;;5031552;28;20049;-76
2022/11/26 00:37:46;;;;;;;0.20;0.10;;;;;;;;;;5031029;28;20106;-77
2022/11/26 00:40:32;;;;;;;0.20;0.10;;;;;;;;;;5031888;28;20050;-76
2022/11/26 00:42:58;;;;;;;0.20;0.15;;;;;;;;;;5024960;28;20491;-76
2022/11/26 00:45:26;;;;;;;0.25;0.20;;;;;;;;;;5029886;28;20469;-76
2022/11/26 00:47:52;;;;;;;0.20;0.10;;;;;;;;;;5026732;28;20045;-76
2022/11/26 00:50:20;;;;;;;0.20;0.10;;;;;;;;;;5029668;28;20116;-76
2022/11/26 00:52:47;;;;;;;0.20;0.20;;;;;;;;;;5030357;28;20075;-77
2022/11/26 00:55:23;;;;;;;0.20;0.10;;;;;;;;;;5032982;28;20091;-76
2022/11/26 00:57:49;;;;;;;0.25;0.25;;;;;;;;;;5031566;28;20502;-77
2022/11/26 01:00:20;;;;;;;0.20;0.10;;;;;;;;;;5029063;28;20124;-76
2022/11/26 01:02:47;;;;;;;0.20;0.10;;;;;;;;;;5027269;28;20437;-76
2022/11/26 01:05:13;;;;;;;0.20;0.10;;;;;;;;;;5028621;28;20037;-76
2022/11/26 01:07:40;;;;;;;0.20;0.10;;;;;;;;;;5031647;28;20041;-77
2022/11/26 01:10:06;;;;;;;0.20;0.03;;;;;;;;;;5013457;28;20122;-77
2022/11/26 01:12:32;;;;;;;0.20;0.20;;;;;;;;;;5027300;28;20048;-76
2022/11/26 01:14:58;;;;;;;0.20;0.10;;;;;;;;;;5014640;28;20575;-76
2022/11/26 01:17:24;;;;;;;0.20;0.10;;;;;;;;;;5017831;28;20123;-76
2022/11/26 01:19:50;;;;;;;0.20;0.10;;;;;;;;;;5023631;28;20045;-77
2022/11/26 01:22:20;;;;;;;0.20;0.10;;;;;;;;;;5013269;28;20037;-76
2022/11/26 01:24:47;;;;;;;0.20;0.10;;;;;;;;;;5030332;28;22542;-77
2022/11/26 01:27:13;;;;;;;0.20;0.10;;;;;;;;;;5029304;28;20095;-76
2022/11/26 01:29:39;;;;;;;0.20;0.10;;;;;;;;;;5030360;28;20463;-76
2022/11/26 01:32:05;;;;;;;0.20;0.10;;;;;;;;;;5023375;28;20041;-76
2022/11/26 01:34:31;;;;;;;0.20;0.10;;;;;;;;;;5032257;28;20051;-76
2022/11/26 01:36:57;;;;;;;0.20;0.10;;;;;;;;;;5030764;28;20811;-76
2022/11/26 01:39:23;;;;;;;0.20;0.10;;;;;;;;;;5028874;28;20055;-76
2022/11/26 01:42:08;;;;;;;0.20;0.10;;;;;;;;;;5013953;28;20446;-76
2022/11/26 01:44:35;;;;;;;0.20;0.10;;;;;;;;;;5025206;28;20045;-77
2022/11/26 01:47:17;;;;;;;0.20;0.03;;;;;;;;;;5025163;28;20161;-76
2022/11/26 01:50:03;;;;;;;0.20;0.10;;;;;;;;;;5014499;28;20130;-76
2022/11/26 01:52:29;;;;;;;0.20;0.10;;;;;;;;;;5026816;28;20084;-77
2022/11/26 01:54:55;;;;;;;0.20;0.10;;;;;;;;;;5014321;28;20158;-77
2022/11/26 01:57:26;;;;;;;0.20;0.10;;;;;;;;;;5031057;28;20047;-76
2022/11/26 01:59:53;;;;;;;0.20;0.10;;;;;;;;;;5012739;28;20053;-76
2022/11/26 02:02:21;;;;;;;0.20;0.10;;;;;;;;;;5031825;28;20062;-77
2022/11/26 02:04:55;;;;;;;0.20;0.10;;;;;;;;;;5027576;28;20061;-77
2022/11/26 02:07:21;;;;;;;0.20;0.10;;;;;;;;;;5027899;28;20048;-75
2022/11/26 02:09:47;;;;;;;0.20;0.10;;;;;;;;;;5031199;28;20127;-76
2022/11/26 02:12:13;;;;;;;0.20;0.10;;;;;;;;;;5024437;28;20068;-77
2022/11/26 02:14:41;;;;;;;0.20;0.10;;;;;;;;;;5027725;28;20988;-76
2022/11/26 02:17:16;;;;;;;0.25;0.25;;;;;;;;;;5027770;28;20041;-76
2022/11/26 02:19:42;;;;;;;0.30;0.10;;;;;;;;;;5016806;28;20218;-75
2022/11/26 02:22:27;;;;;;;0.20;0.10;;;;;;;;;;5035965;28;20059;-75
2022/11/26 02:25:12;;;;;;;0.20;0.10;;;;;;;;;;5029438;28;20495;-75
2022/11/26 02:27:50;;;;;;;0.20;0.10;;;;;;;;;;5030341;28;20713;-76
2022/11/26 02:30:17;;;;;;;0.20;0.10;;;;;;;;;;5009734;28;20079;-76
2022/11/26 02:32:54;;;;;;;0.20;0.10;;;;;;;;;;5014208;28;20055;-75
2022/11/26 02:35:20;;;;;;;0.20;0.10;;;;;;;;;;5023334;28;20589;-76
2022/11/26 02:37:58;;;;;;;0.20;0.10;;;;;;;;;;5033898;28;20587;-76
2022/11/26 02:40:25;;;;;;;0.20;0.10;;;;;;;;;;5029190;28;21708;-75
2022/11/26 02:42:51;;;;;;;0.20;0.10;;;;;;;;;;5043273;28;20415;-75
2022/11/26 02:45:18;;;;;;;0.20;0.10;;;;;;;;;;5037339;28;20037;-76
2022/11/26 02:47:45;;;;;;;0.20;0.20;;;;;;;;;;5032213;28;20813;-75
2022/11/26 02:50:15;;;;;;;0.20;0.10;;;;;;;;;;5035191;28;20048;-75
2022/11/26 02:52:41;;;;;;;0.20;0.10;;;;;;;;;;5039885;28;20048;-76
2022/11/26 02:55:09;;;;;;;0.20;0.10;;;;;;;;;;5030040;28;20068;-75
2022/11/26 02:57:40;;;;;;;2.05;0.40;;;;;;;;;;5019696;28;20045;-75
2022/11/26 03:00:06;;;;;;;0.20;0.10;;;;;;;;;;5034867;28;20036;-75
2022/11/26 03:02:48;;;;;;;0.20;0.10;;;;;;;;;;5032029;28;20036;-75
2022/11/26 03:05:15;;;;;;;0.75;0.43;;;;;;;;;;5031348;28;20033;-75
2022/11/26 03:07:42;;;;;;;0.20;0.10;;;;;;;;;;5028731;28;20041;-75
2022/11/26 03:10:08;;;;;;;0.20;0.10;;;;;;;;;;5031475;28;20098;-75
2022/11/26 03:12:34;;;;;;;0.20;0.10;;;;;;;;;;5031511;28;20056;-76
2022/11/26 03:15:00;;;;;;;0.20;0.10;;;;;;;;;;5023822;28;20055;-75
2022/11/26 03:17:26;;;;;;;0.20;0.10;;;;;;;;;;5025233;28;20090;-76
2022/11/26 03:19:52;;;;;;;0.20;0.10;;;;;;;;;;5025971;28;20045;-75
2022/11/26 03:22:18;;;;;;;0.20;0.10;;;;;;;;;;5021273;28;20514;-75
2022/11/26 03:24:44;;;;;;;0.20;0.10;;;;;;;;;;5010837;28;20037;-75
2022/11/26 03:27:10;;;;;;;0.20;0.10;;;;;;;;;;5027048;28;20458;-76
2022/11/26 03:29:36;;;;;;;0.20;0.10;;;;;;;;;;5033026;28;20060;-75
2022/11/26 03:32:02;;;;;;;0.20;0.10;;;;;;;;;;5027271;28;20044;-75
2022/11/26 03:34:28;;;;;;;0.20;0.10;;;;;;;;;;5018514;28;20100;-75
2022/11/26 03:36:54;;;;;;;0.20;0.10;;;;;;;;;;5034655;28;20028;-76
2022/11/26 03:39:20;;;;;;;0.20;0.10;;;;;;;;;;5031574;28;20466;-76
2022/11/26 03:41:46;;;;;;;0.30;0.30;;;;;;;;;;5028738;28;20129;-75
2022/11/26 03:44:12;;;;;;;0.20;0.10;;;;;;;;;;5032714;28;20140;-75
2022/11/26 03:46:38;;;;;;;0.20;0.10;;;;;;;;;;5029930;28;20069;-75
2022/11/26 03:49:04;;;;;;;0.20;0.10;;;;;;;;;;5030376;28;20083;-75
2022/11/26 03:51:30;;;;;;;0.20;0.10;;;;;;;;;;5031909;28;20052;-75
2022/11/26 03:53:56;;;;;;;0.20;0.10;;;;;;;;;;5017176;28;20037;-75
2022/11/26 03:56:22;;;;;;;0.20;0.10;;;;;;;;;;5034738;28;20045;-75
2022/11/26 03:58:48;;;;;;;0.20;0.10;;;;;;;;;;5032428;28;20045;-75
2022/11/26 04:01:14;;;;;;;2.55;0.95;;;;;;;;;;5031974;28;20045;-75
2022/11/26 04:03:40;;;;;;;0.20;0.10;;;;;;;;;;5035215;28;20133;-75
2022/11/26 04:06:06;;;;;;;0.20;0.10;;;;;;;;;;5034612;28;20036;-75
2022/11/26 04:08:33;;;;;;;0.20;0.10;;;;;;;;;;5033602;28;20400;-75
2022/11/26 04:10:59;;;;;;;0.20;0.10;;;;;;;;;;5050308;28;20574;-75
2022/11/26 04:13:25;;;;;;;0.20;0.10;;;;;;;;;;5032727;28;20041;-75
2022/11/26 04:15:51;;;;;;;0.20;0.10;;;;;;;;;;5029732;28;20570;-75
2022/11/26 04:18:17;;;;;;;0.20;0.10;;;;;;;;;;5032514;28;20115;-75
2022/11/26 04:20:43;;;;;;;0.20;0.10;;;;;;;;;;5031574;28;20581;-75
2022/11/26 04:23:09;;;;;;;0.20;0.10;;;;;;;;;;5015917;28;20033;-75
2022/11/26 04:25:35;;;;;;;0.20;0.10;;;;;;;;;;5047050;28;20137;-75
2022/11/26 04:28:01;;;;;;;0.20;0.10;;;;;;;;;;5033843;28;20033;-76
2022/11/26 04:30:27;;;;;;;0.20;0.08;;;;;;;;;;5020375;28;20589;-76
2022/11/26 04:32:53;;;;;;;0.20;0.00;;;;;;;;;;5017912;28;20049;-75
2022/11/26 04:35:19;;;;;;;0.20;0.10;;;;;;;;;;5023679;28;20049;-76
2022/11/26 04:37:45;;;;;;;0.20;0.08;;;;;;;;;;5031375;28;20119;-75
2022/11/26 04:40:11;;;;;;;0.20;0.10;;;;;;;;;;5025022;28;20144;-75
2022/11/26 04:42:37;;;;;;;0.20;0.10;;;;;;;;;;5034849;28;20894;-75
2022/11/26 04:45:04;;;;;;;0.50;0.30;;;;;;;;;;5035182;28;20090;-75
2022/11/26 04:47:30;;;;;;;0.20;0.10;;;;;;;;;;5035119;28;20767;-75
2022/11/26 04:49:56;;;;;;;0.20;0.10;;;;;;;;;;5023235;28;20060;-76
2022/11/26 04:52:21;;;;;;;0.20;0.10;;;;;;;;;;5033666;28;20381;-76
2022/11/26 04:54:47;;;;;;;0.20;0.10;;;;;;;;;;5036157;28;20083;-75
2022/11/26 04:57:13;;;;;;;0.20;0.10;;;;;;;;;;5040337;28;21032;-75
2022/11/26 04:59:39;;;;;;;0.20;0.10;;;;;;;;;;5021272;28;20061;-75
2022/11/26 05:02:05;;;;;;;0.20;0.10;;;;;;;;;;5022801;28;20823;-76
2022/11/26 05:04:32;;;;;;;0.20;0.10;;;;;;;;;;5034160;28;20041;-75
2022/11/26 05:06:58;;;;;;;0.20;0.10;;;;;;;;;;5028802;28;20036;-76
2022/11/26 05:09:24;;;;;;;0.30;0.20;;;;;;;;;;5018919;28;20045;-76
2022/11/26 05:11:49;;;;;;;0.20;0.10;;;;;;;;;;5031347;28;20117;-75
2022/11/26 05:14:15;;;;;;;0.20;0.10;;;;;;;;;;5032046;28;20040;-76
2022/11/26 05:16:41;;;;;;;0.20;0.10;;;;;;;;;;5024202;28;20570;-75
2022/11/26 05:19:07;;;;;;;0.20;0.10;;;;;;;;;;5014129;28;20049;-75
2022/11/26 05:21:33;;;;;;;0.20;0.10;;;;;;;;;;5014403;28;20032;-75
2022/11/26 05:23:59;;;;;;;0.20;0.10;;;;;;;;;;5029481;28;20040;-76
2022/11/26 05:26:25;;;;;;;0.20;0.10;;;;;;;;;;5029050;28;20377;-75
2022/11/26 05:28:51;;;;;;;0.20;0.10;;;;;;;;;;5035555;28;20041;-75
2022/11/26 05:31:17;;;;;;;0.20;0.10;;;;;;;;;;5029681;28;20038;-75
2022/11/26 05:33:43;;;;;;;0.20;0.10;;;;;;;;;;5031164;28;20098;-75
2022/11/26 05:36:09;;;;;;;0.20;0.10;;;;;;;;;;5037141;28;20102;-75
2022/11/26 05:38:35;;;;;;;0.20;0.10;;;;;;;;;;5031497;28;20049;-75
2022/11/26 05:41:02;;;;;;;0.30;0.20;;;;;;;;;;5023464;28;20041;-75
2022/11/26 05:43:28;;;;;;;0.20;0.10;;;;;;;;;;5017548;28;20036;-75
2022/11/26 05:45:54;;;;;;;0.20;0.10;;;;;;;;;;5034528;28;20032;-75
2022/11/26 05:48:20;;;;;;;0.20;0.10;;;;;;;;;;5032349;28;20589;-75
2022/11/26 05:50:46;;;;;;;0.20;0.10;;;;;;;;;;5026128;28;20041;-75
2022/11/26 05:53:12;;;;;;;0.43;0.20;;;;;;;;;;5015903;28;20080;-75
2022/11/26 05:55:38;;;;;;;0.20;0.10;;;;;;;;;;5034215;28;20395;-76
2022/11/26 05:58:04;;;;;;;0.20;0.00;;;;;;;;;;5032532;28;20984;-75
2022/11/26 06:00:30;;;;;;;0.20;0.10;;;;;;;;;;5025852;28;20045;-75
2022/11/26 06:02:56;;;;;;;0.20;0.10;;;;;;;;;;5032066;28;20059;-76
2022/11/26 06:05:22;;;;;;;0.20;0.10;;;;;;;;;;5027661;28;20500;-75
2022/11/26 06:07:48;;;;;;;0.20;0.20;;;;;;;;;;5033967;28;20128;-75
2022/11/26 06:10:14;;;;;;;0.20;0.10;;;;;;;;;;5030081;28;20484;-74
2022/11/26 06:12:40;;;;;;;0.20;0.10;;;;;;;;;;5029606;28;20045;-75
2022/11/26 06:15:06;;;;;;;0.20;0.10;;;;;;;;;;5032716;28;20102;-74
2022/11/26 06:17:32;;;;;;;0.20;0.10;;;;;;;;;;5028759;28;20116;-75
2022/11/26 06:19:58;;;;;;;0.20;0.03;;;;;;;;;;5028975;28;20063;-75
2022/11/26 06:22:24;;;;;;;0.20;0.10;;;;;;;;;;5024755;28;20036;-75
2022/11/26 06:27:20;;;;;;;0.20;0.10;;;;;;;;;;4982951;28;20038;-80
2022/11/26 06:29:46;;;;;;;0.20;0.10;;;;;;;;;;4991444;28;20562;-81
2022/11/26 06:32:12;;;;;;;0.20;0.10;;;;;;;;;;4970381;28;20131;-79
2022/11/26 06:34:38;;;;;;;0.20;0.10;;;;;;;;;;4989506;28;20412;-80
2022/11/26 06:37:04;;;;;;;0.20;0.10;;;;;;;;;;4989002;28;20042;-80
2022/11/26 06:39:30;;;;;;;0.20;0.10;;;;;;;;;;4990323;28;20556;-81
2022/11/26 06:41:56;;;;;;;0.20;0.10;;;;;;;;;;4987410;28;20038;-78
2022/11/26 06:44:22;;;;;;;0.20;0.10;;;;;;;;;;4991019;28;20504;-80
2022/11/26 06:46:48;;;;;;;0.20;0.10;;;;;;;;;;4991498;28;20078;-80
2022/11/26 06:49:14;;;;;;;0.30;0.13;;;;;;;;;;4987715;28;20030;-81
2022/11/26 06:51:40;;;;;;;0.20;0.10;;;;;;;;;;4991280;28;20048;-81
2022/11/26 06:54:06;;;;;;;0.20;0.10;;;;;;;;;;4989925;28;20124;-81
2022/11/26 06:56:34;;;;;;;0.20;0.10;;;;;;;;;;4981518;28;20042;-81
2022/11/26 06:59:01;;;;;;;0.20;0.10;;;;;;;;;;4993846;28;20501;-81
2022/11/26 07:01:27;;;;;;;0.20;0.10;;;;;;;;;;4980730;28;20034;-82
2022/11/26 07:03:54;;;;;;;0.20;0.10;;;;;;;;;;4973551;28;20046;-81
2022/11/26 07:06:27;;;;;;;0.20;0.10;;;;;;;;;;4988016;28;20042;-81
2022/11/26 07:08:54;;;;;;;0.55;0.30;;;;;;;;;;4995824;28;20100;-81
2022/11/26 07:11:21;;;;;;;0.20;0.10;;;;;;;;;;4999225;28;20039;-80
2022/11/26 07:13:47;;;;;;;0.20;0.10;;;;;;;;;;4973336;28;20038;-80
2022/11/26 07:16:14;;;;;;;0.20;0.10;;;;;;;;;;4975365;28;20034;-80
2022/11/26 07:18:40;;;;;;;0.20;0.10;;;;;;;;;;4991277;28;20501;-80
2022/11/26 07:21:12;;;;;;;0.20;0.10;;;;;;;;;;4991381;28;20492;-81
2022/11/26 07:23:38;;;;;;;;;;;;;;;;;;4982423;28;21614;-81
2022/11/26 07:26:05;;;;;;;0.20;0.10;;;;;;;;;;4984950;28;19931;-81
2022/11/26 07:28:31;;;;;;;0.20;0.10;;;;;;;;;;4971370;28;20038;-79
2022/11/26 07:31:05;;;;;;;0.20;0.10;;;;;;;;;;4976635;28;20034;-80
2022/11/26 07:33:31;;;;;;;0.20;0.10;;;;;;;;;;4975602;28;20042;-79
2022/11/26 07:36:04;;;;;;;0.20;0.10;;;;;;;;;;4991667;28;20095;-80
2022/11/26 07:38:30;;;;;;;0.20;0.10;;;;;;;;;;4993996;28;20042;-81
2022/11/26 07:41:07;;;;;;;0.20;0.20;;;;;;;;;;4973440;28;20054;-80
2022/11/26 07:43:33;;;;;;;0.20;0.10;;;;;;;;;;4992387;28;20038;-80
2022/11/26 07:46:04;;;;;;;0.20;0.15;;;;;;;;;;4993963;28;20052;-80
2022/11/26 07:48:30;;;;;;;0.40;0.30;;;;;;;;;;4975776;28;20109;-80
2022/11/26 07:50:56;;;;;;;0.20;0.10;;;;;;;;;;4997394;28;20617;-80
2022/11/26 07:53:22;;;;;;;0.20;0.10;;;;;;;;;;4998226;28;20052;-79
2022/11/26 07:55:48;;;;;;;0.20;0.10;;;;;;;;;;4994217;28;20165;-81
2022/11/26 07:58:15;;;;;;;0.20;0.10;;;;;;;;;;4997643;28;20049;-79
2022/11/26 08:00:41;;;;;;;0.77;0.77;;;;;;;;;;5000482;28;20053;-80
2022/11/26 08:03:07;;;;;;;0.20;0.10;;;;;;;;;;4985686;28;20046;-79
2022/11/26 08:05:33;;;;;;;0.20;0.10;;;;;;;;;;4991203;28;20045;-78
2022/11/26 08:07:59;;;;;;;0.20;0.10;;;;;;;;;;4994743;28;20481;-78
2022/11/26 08:10:25;;;;;;;0.20;0.10;;;;;;;;;;4992624;28;20054;-80
2022/11/26 08:12:51;;;;;;;0.20;0.10;;;;;;;;;;4996037;28;20662;-80
2022/11/26 08:15:17;;;;;;;0.20;0.10;;;;;;;;;;4998726;28;20508;-80
2022/11/26 08:17:43;;;;;;;0.20;0.10;;;;;;;;;;4995625;28;20041;-79
2022/11/26 08:20:09;;;;;;;0.20;0.10;;;;;;;;;;4985981;28;20072;-78
2022/11/26 08:22:35;;;;;;;0.20;0.10;;;;;;;;;;5001668;28;20061;-79
2022/11/26 08:25:01;;;;;;;0.20;0.10;;;;;;;;;;5001403;28;20492;-78
2022/11/26 08:27:27;;;;;;;0.20;0.10;;;;;;;;;;4980430;28;20042;-81
2022/11/26 08:29:53;;;;;;;0.20;0.10;;;;;;;;;;4999543;28;20048;-80
2022/11/26 08:32:19;;;;;;;0.20;0.10;;;;;;;;;;4983479;28;20061;-79
2022/11/26 08:34:45;;;;;;;0.20;0.10;;;;;;;;;;5005966;28;20050;-79
2022/11/26 08:37:11;;;;;;;0.20;0.20;;;;;;;;;;4995436;28;20030;-80
2022/11/26 08:39:37;;;;;;;0.20;0.10;;;;;;;;;;4989998;28;20408;-80
2022/11/26 08:42:03;;;;;;;0.20;0.10;;;;;;;;;;4997491;28;20570;-79
2022/11/26 08:44:29;;;;;;;0.20;0.10;;;;;;;;;;4995154;28;20084;-80
2022/11/26 08:46:55;;;;;;;0.20;0.10;;;;;;;;;;4974722;28;20038;-80
2022/11/26 08:49:21;;;;;;;0.20;0.10;;;;;;;;;;4989691;28;20144;-78
2022/11/26 08:51:47;;;;;;;0.20;0.10;;;;;;;;;;4993610;28;20042;-78
2022/11/26 08:54:13;;;;;;;0.20;0.20;;;;;;;;;;4984499;28;20073;-77
2022/11/26 08:56:41;;;;;;;0.20;0.10;;;;;;;;;;4982388;28;20087;-80
2022/11/26 08:59:07;;;;;;;0.20;0.20;;;;;;;;;;4988802;28;20127;-81
2022/11/26 09:01:33;;;;;;;0.20;0.10;;;;;;;;;;4999485;28;20037;-80
2022/11/26 09:04:00;;;;;;;0.20;0.10;;;;;;;;;;4997357;28;20050;-83
2022/11/26 09:06:27;;;;;;;0.20;0.10;;;;;;;;;;4979416;28;20048;-78
2022/11/26 09:09:12;;;;;;;0.20;0.10;;;;;;;;;;4981074;28;20045;-80
2022/11/26 09:11:44;;;;;;;0.20;0.10;;;;;;;;;;4978500;28;20052;-80
2022/11/26 09:14:10;;;;;;;0.20;0.10;;;;;;;;;;4976993;28;20160;-80
2022/11/26 09:16:37;;;;;;;0.20;0.10;;;;;;;;;;4983421;28;20041;-80
2022/11/26 09:19:04;;;;;;;0.28;0.17;;;;;;;;;;5001593;28;20048;-80
2022/11/26 09:21:30;;;;;;;0.20;0.10;;;;;;;;;;5003210;28;20042;-78
2022/11/26 09:23:56;;;;;;;0.20;0.10;;;;;;;;;;4980029;28;20129;-80
2022/11/26 09:26:24;;;;;;;0.20;0.10;;;;;;;;;;4996506;28;20559;-79
2022/11/26 09:28:50;;;;;;;0.20;0.10;;;;;;;;;;5010389;28;20040;-80
2022/11/26 09:31:17;;;;;;;0.20;0.10;;;;;;;;;;4998191;28;20040;-79
2022/11/26 09:33:44;;;;;;;0.20;0.10;;;;;;;;;;4999291;28;20080;-79
2022/11/26 09:36:11;;;;;;;0.28;0.28;;;;;;;;;;4994589;28;20034;-80
2022/11/26 09:38:38;;;;;;;0.20;0.10;;;;;;;;;;4998713;28;20157;-78
2022/11/26 09:41:16;;;;;;;0.40;0.40;;;;;;;;;;5000383;28;20030;-78
2022/11/26 09:44:00;;;;;;;0.20;0.15;;;;;;;;;;4992791;28;20035;-78
2022/11/26 09:46:35;;;;;;;0.20;0.10;;;;;;;;;;5000915;28;20169;-78
2022/11/26 09:49:01;;;;;;;0.20;0.10;;;;;;;;;;5006388;28;20064;-79
2022/11/26 09:51:34;;;;;;;0.30;0.10;;;;;;;;;;5066561;27;20496;-79
2022/11/26 09:54:01;;;;;;;0.20;0.10;;;;;;;;;;5063937;28;20045;-79
2022/11/26 09:56:27;;;;;;;0.20;0.10;;;;;;;;;;5055456;28;20439;-80
2022/11/26 09:59:00;;;;;;;0.20;0.10;;;;;;;;;;5053266;28;20032;-79
2022/11/26 10:01:26;;;;;;;;;;;;;;;;;;5071795;28;20123;-79
2022/11/26 10:03:52;;;;;;;0.20;0.10;;;;;;;;;;5053052;28;20010;-77
2022/11/26 10:06:37;;;;;;;0.20;0.10;;;;;;;;;;5070708;28;20041;-80
2022/11/26 10:09:03;;;;;;;0.20;0.10;;;;;;;;;;5065814;28;20960;-80
2022/11/26 10:11:32;;;;;;;0.20;0.10;;;;;;;;;;5061425;28;20045;-80
2022/11/26 10:14:07;;;;;;;0.20;0.10;;;;;;;;;;5041202;28;20134;-79
2022/11/26 10:16:36;;;;;;;0.20;0.10;;;;;;;;;;5064809;28;20086;-78
2022/11/26 10:19:08;;;;;;;0.20;0.10;;;;;;;;;;5069026;28;20720;-77
2022/11/26 10:21:37;;;;;;;0.20;0.20;;;;;;;;;;5069246;28;20509;-79
2022/11/26 10:24:08;;;;;;;0.20;0.10;;;;;;;;;;5069781;28;20041;-78
2022/11/26 10:26:38;;;;;;;0.30;0.20;;;;;;;;;;5049615;28;20052;-77
2022/11/26 10:29:24;;;;;;;0.20;0.10;;;;;;;;;;5063801;28;20044;-80
2022/11/26 10:31:51;;;;;;;0.28;0.17;;;;;;;;;;5046903;28;20033;-81
2022/11/26 10:34:38;;;;;;;0.38;0.13;;;;;;;;;;5051925;28;20113;-79
2022/11/26 10:37:04;;;;;;;0.57;0.38;;;;;;;;;;5084700;28;20037;-81
2022/11/26 10:39:30;;;;;;;0.20;0.10;;;;;;;;;;5067220;28;20040;-79
2022/11/26 10:41:56;;;;;;;0.20;0.20;;;;;;;;;;5051959;28;20041;-81
2022/11/26 10:44:34;;;;;;;0.20;0.20;;;;;;;;;;5044648;28;20051;-79
2022/11/26 10:47:17;;;;;;;0.20;0.10;;;;;;;;;;5054232;28;20040;-78
2022/11/26 10:49:43;;;;;;;0.32;0.32;;;;;;;;;;5064610;28;20044;-77
2022/11/26 10:52:09;;;;;;;0.20;0.10;;;;;;;;;;5052295;28;20116;-80
2022/11/26 10:54:36;;;;;;;0.65;0.65;;;;;;;;;;5047213;28;20129;-78
2022/11/26 10:57:12;;;;;;;0.20;0.10;;;;;;;;;;5064680;28;20124;-80
2022/11/26 10:59:41;;;;;;;0.35;0.32;;;;;;;;;;5060982;28;20791;-80
2022/11/26 11:02:19;;;;;;;0.20;0.10;;;;;;;;;;5048801;28;20037;-79
2022/11/26 11:04:47;;;;;;;0.20;0.17;;;;;;;;;;5031684;28;20048;-79
2022/11/26 11:07:30;;;;;;;0.20;0.10;;;;;;;;;;5049194;28;20041;-80
2022/11/26 11:10:16;;;;;;;0.50;0.32;;;;;;;;;;5025639;28;20333;-80
2022/11/26 11:12:47;;;;;;;0.20;0.10;;;;;;;;;;5028166;28;20033;-80
2022/11/26 11:15:27;;;;;;;0.20;0.10;;;;;;;;;;5047258;28;20052;-79
2022/11/26 11:17:55;;;;;;;0.20;0.10;;;;;;;;;;5047483;28;20403;-80
2022/11/26 11:20:26;;;;;;;0.20;0.10;;;;;;;;;;5019803;28;20056;-79
2022/11/26 11:23:00;;;;;;;0.20;0.10;;;;;;;;;;5034491;28;20549;-81
2022/11/26 11:25:29;;;;;;;0.20;0.10;;;;;;;;;;5026269;28;20072;-80
2022/11/26 11:28:00;;;;;;;0.20;0.10;;;;;;;;;;5039590;28;20052;-79
2022/11/26 11:30:28;;;;;;;0.20;0.10;;;;;;;;;;5042246;28;20048;-79
2022/11/26 11:33:08;;;;;;;0.20;0.20;;;;;;;;;;5029416;28;20055;-81
2022/11/26 11:35:34;;;;;;;0.20;0.17;;;;;;;;;;5022110;28;20041;-81
2022/11/26 11:38:00;;;;;;;0.20;0.10;;;;;;;;;;5029177;28;20041;-80
2022/11/26 11:40:29;;;;;;;0.20;0.10;;;;;;;;;;5048763;28;20047;-79
2022/11/26 11:42:58;;;;;;;0.20;0.10;;;;;;;;;;5051126;28;20098;-81
2022/11/26 11:45:30;;;;;;;0.20;0.10;;;;;;;;;;5041517;28;20563;-79
2022/11/26 11:48:05;;;;;;;0.20;0.10;;;;;;;;;;5052159;28;20041;-80
2022/11/26 11:50:33;;;;;;;0.20;0.10;;;;;;;;;;5047466;28;20123;-84
2022/11/26 11:52:59;;;;;;;0.50;0.50;;;;;;;;;;5053426;28;20524;-79
2022/11/26 11:55:25;;;;;;;0.20;0.10;;;;;;;;;;5033806;28;20120;-81
2022/11/26 11:57:59;;;;;;;0.20;0.10;;;;;;;;;;5047838;28;20111;-79
2022/11/26 12:00:39;;;;;;;0.20;0.10;;;;;;;;;;5042426;28;20041;-82
2022/11/26 12:03:44;;;;;;;0.90;0.50;;;;;;;;;;5036042;28;20036;-80
2022/11/26 12:06:18;;;;;;;0.20;0.10;;;;;;;;;;4982316;28;20046;-80
2022/11/26 12:08:50;;;;;;;0.20;0.20;;;;;;;;;;4985245;28;20232;-79
2022/11/26 12:11:23;;;;;;;0.20;0.10;;;;;;;;;;5035730;28;20135;-80
2022/11/26 12:13:54;;;;;;;0.20;0.10;;;;;;;;;;5027613;28;20041;-80
2022/11/26 12:16:21;;;;;;;0.20;0.10;;;;;;;;;;5043264;28;20037;-80
2022/11/26 12:18:51;;;;;;;0.20;0.10;;;;;;;;;;5028573;28;20048;-81
2022/11/26 12:21:21;;;;;;;0.20;0.17;;;;;;;;;;5051379;28;20045;-80
2022/11/26 12:23:50;;;;;;;0.20;0.10;;;;;;;;;;5026939;28;20041;-81
2022/11/26 12:26:20;;;;;;;0.30;0.30;;;;;;;;;;5029362;28;20087;-81
2022/11/26 12:29:02;;;;;;;0.30;0.15;;;;;;;;;;5042464;28;20037;-80
2022/11/26 12:31:43;;;;;;;0.20;0.10;;;;;;;;;;5047196;28;20037;-79
2022/11/26 12:34:20;;;;;;;0.45;0.40;;;;;;;;;;5048752;28;20716;-80
2022/11/26 12:37:03;;;;;;;0.20;0.10;;;;;;;;;;5048277;28;20040;-80
2022/11/26 12:39:36;;;;;;;0.20;0.10;;;;;;;;;;5028560;28;20420;-80
2022/11/26 12:42:08;;;;;;;0.20;0.20;;;;;;;;;;5052036;28;20040;-81
2022/11/26 12:44:36;;;;;;;0.20;0.10;;;;;;;;;;5055713;28;20051;-81
2022/11/26 12:47:18;;;;;;;0.30;0.30;;;;;;;;;;5031794;28;20037;-81
2022/11/26 12:49:56;;;;;;;0.20;0.10;;;;;;;;;;5030169;28;20064;-81
2022/11/26 12:52:22;;;;;;;0.20;0.10;;;;;;;;;;5028549;28;20060;-82
2022/11/26 12:55:06;;;;;;;0.20;0.10;;;;;;;;;;5033498;28;20037;-79
2022/11/26 12:57:36;;;;;;;0.20;0.10;;;;;;;;;;5046308;28;20703;-81
2022/11/26 13:00:05;;;;;;;0.20;0.10;;;;;;;;;;5027927;28;20088;-80
2022/11/26 13:02:33;;;;;;;0.50;0.47;;;;;;;;;;5035900;28;20037;-80
2022/11/26 13:04:59;;;;;;;0.20;0.10;;;;;;;;;;5018026;28;20084;-78
2022/11/26 13:07:44;;;;;;;0.20;0.10;;;;;;;;;;5039638;28;20041;-80
2022/11/26 13:10:36;;;;;;;0.30;0.20;;;;;;;;;;5039280;28;20033;-80
2022/11/26 13:13:16;;;;;;;0.20;0.10;;;;;;;;;;5027716;28;20503;-80
2022/11/26 13:15:45;;;;;;;0.20;0.10;;;;;;;;;;5050400;28;20029;-82
2022/11/26 13:18:16;;;;;;;0.20;0.10;;;;;;;;;;5045869;28;20056;-81
2022/11/26 13:20:50;;;;;;;0.20;0.10;;;;;;;;;;5031178;28;20064;-82
2022/11/26 13:23:37;;;;;;;0.20;0.00;;;;;;;;;;5026782;28;20041;-82
2022/11/26 13:26:09;;;;;;;0.20;0.10;;;;;;;;;;5033330;28;20083;-80
2022/11/26 13:28:35;;;;;;;0.43;0.43;;;;;;;;;;5048955;28;20383;-81
2022/11/26 13:31:16;;;;;;;0.20;0.10;;;;;;;;;;5026673;28;20045;-81
2022/11/26 13:33:56;;;;;;;0.20;0.10;;;;;;;;;;5034741;28;20307;-83
2022/11/26 13:36:27;;;;;;;0.20;0.10;;;;;;;;;;5044174;28;20036;-81
2022/11/26 13:38:59;;;;;;;0.20;0.10;;;;;;;;;;5026046;28;20036;-80
2022/11/26 13:41:44;;;;;;;0.20;0.10;;;;;;;;;;5024789;28;20083;-81
2022/11/26 13:44:25;;;;;;;0.20;0.10;;;;;;;;;;5029174;28;20037;-80
2022/11/26 13:46:56;;;;;;;0.20;0.10;;;;;;;;;;5024014;28;20045;-81
2022/11/26 13:49:33;;;;;;;0.20;0.10;;;;;;;;;;5045060;28;20094;-80
2022/11/26 13:52:05;;;;;;;0.20;0.10;;;;;;;;;;5038439;28;20056;-81
2022/11/26 13:54:34;;;;;;;0.20;0.10;;;;;;;;;;5043481;28;20042;-81
2022/11/26 13:57:02;;;;;;;0.20;0.10;;;;;;;;;;5017397;28;20041;-82
2022/11/26 13:59:29;;;;;;;0.20;0.10;;;;;;;;;;5019267;28;20037;-80
2022/11/26 14:01:56;;;;;;;0.20;0.10;;;;;;;;;;5028967;28;20809;-82
2022/11/26 14:04:21;;;;;;;0.20;0.10;;;;;;;;;;5050205;28;20062;-81
2022/11/26 14:07:03;;;;;;;0.20;0.10;;;;;;;;;;5044524;28;20452;-82
2022/11/26 14:09:41;;;;;;;0.20;0.10;;;;;;;;;;5044637;28;20037;-81
2022/11/26 14:12:08;;;;;;;0.20;0.10;;;;;;;;;;5028133;28;20057;-81
2022/11/26 14:14:35;;;;;;;0.20;0.10;;;;;;;;;;5047283;28;20033;-82
2022/11/26 14:17:01;;;;;;;1.15;0.20;;;;;;;;;;5049818;28;20518;-82
2022/11/26 14:19:39;;;;;;;0.20;0.10;;;;;;;;;;5026400;28;20041;-81
2022/11/26 14:22:25;;;;;;;0.20;0.10;;;;;;;;;;5029890;28;20829;-82
2022/11/26 14:24:51;;;;;;;0.43;0.35;;;;;;;;;;5043020;28;20033;-82
2022/11/26 14:27:18;;;;;;;0.57;0.30;;;;;;;;;;5046972;28;20037;-82
2022/11/26 14:29:46;;;;;;;0.20;0.10;;;;;;;;;;5049068;28;20041;-81
2022/11/26 14:32:16;;;;;;;0.32;0.30;;;;;;;;;;5040640;28;20037;-81
2022/11/26 14:34:50;;;;;;;0.20;0.10;;;;;;;;;;5050150;28;20033;-81
2022/11/26 14:37:18;;;;;;;0.20;0.10;;;;;;;;;;5039216;28;20040;-81
2022/11/26 14:39:44;;;;;;;0.20;0.10;;;;;;;;;;5051947;28;20064;-82
2022/11/26 14:42:17;;;;;;;0.20;0.10;;;;;;;;;;5040368;28;20045;-82
2022/11/26 14:44:43;;;;;;;;;;;;;;;;;;5050784;28;20123;-81
2022/11/26 14:47:18;;;;;;;0.20;0.10;;;;;;;;;;5035193;28;20645;-81
2022/11/26 14:49:48;;;;;;;0.20;0.10;;;;;;;;;;5038739;28;21051;-82
2022/11/26 14:52:16;;;;;;;0.20;0.10;;;;;;;;;;5032396;28;20033;-82
2022/11/26 14:54:42;;;;;;;0.20;0.10;;;;;;;;;;5043301;28;20063;-81
2022/11/26 14:57:13;;;;;;;0.20;0.10;;;;;;;;;;5053530;28;20078;-81